Time;durP1;ratioP1;P1;durP2;ratioP2;P2;SDS_P1;SDS_P2;PMS_P1;PMS_P2;Temp;Humidity;BMP_temperature;BMP_pressure;BME280_temperature;BME280_humidity;BME280_pressure;Samples;Min_cycle;Max_cycle;Signal;HPM_P1;HPM_P2
2021/03/01 00:01:07;;;;;;;12.63;11.30;;;0.80;99.90;;;;;;5085288;28;20474;-81
2021/03/01 00:03:34;;;;;;;13.03;11.63;;;0.70;99.90;;;;;;5084291;28;20451;-81
2021/03/01 00:06:01;;;;;;;18.53;11.63;;;0.70;99.90;;;;;;5102779;28;20479;-81
2021/03/01 00:08:27;;;;;;;12.40;11.10;;;0.70;99.90;;;;;;5106116;28;20431;-81
2021/03/01 00:10:54;;;;;;;13.57;11.90;;;0.60;99.90;;;;;;5106329;28;20490;-81
2021/03/01 00:13:21;;;;;;;13.03;11.43;;;0.60;99.90;;;;;;5087012;28;20455;-82
2021/03/01 00:15:48;;;;;;;14.30;11.57;;;0.60;99.90;;;;;;5089477;28;20482;-81
2021/03/01 00:18:14;;;;;;;12.97;11.67;;;0.50;99.90;;;;;;5084798;28;20459;-81
2021/03/01 00:20:41;;;;;;;13.00;11.80;;;0.50;99.90;;;;;;5099669;28;20849;-81
2021/03/01 00:23:10;;;;;;;12.67;11.03;;;0.50;99.90;;;;;;5080769;28;20489;-81
2021/03/01 00:25:38;;;;;;;12.93;11.73;;;0.50;99.90;;;;;;5106012;28;20927;-81
2021/03/01 00:28:05;;;;;;;12.67;11.37;;;0.50;99.90;;;;;;5086371;28;20456;-81
2021/03/01 00:30:32;;;;;;;13.57;11.87;;;0.50;99.90;;;;;;5102134;28;20463;-81
2021/03/01 00:32:58;;;;;;;12.70;11.10;;;0.40;99.90;;;;;;5084390;28;20943;-81
2021/03/01 00:35:24;;;;;;;15.40;12.33;;;0.40;99.90;;;;;;5087286;28;20872;-82
2021/03/01 00:37:51;;;;;;;13.13;11.70;;;0.50;99.90;;;;;;5090969;28;20447;-81
2021/03/01 00:40:18;;;;;;;12.83;11.43;;;0.40;99.90;;;;;;5085613;28;20994;-81
2021/03/01 00:42:44;;;;;;;12.93;11.10;;;0.40;99.90;;;;;;5083006;28;21103;-82
2021/03/01 00:45:13;;;;;;;12.60;11.37;;;0.30;99.90;;;;;;5079737;28;20472;-82
2021/03/01 00:47:39;;;;;;;14.80;12.07;;;0.30;99.90;;;;;;5082727;28;20513;-81
2021/03/01 00:50:07;;;;;;;14.20;12.20;;;0.20;99.90;;;;;;5105619;28;20452;-81
2021/03/01 00:52:33;;;;;;;15.70;12.37;;;0.20;99.90;;;;;;5084624;28;20467;-81
2021/03/01 00:54:59;;;;;;;13.37;11.63;;;0.20;99.90;;;;;;5083911;28;20998;-81
2021/03/01 00:57:26;;;;;;;14.00;11.13;;;0.20;99.90;;;;;;5084608;28;20481;-81
2021/03/01 00:59:52;;;;;;;14.00;12.10;;;0.20;99.90;;;;;;5082411;28;20486;-81
2021/03/01 01:02:19;;;;;;;12.17;10.90;;;0.20;99.90;;;;;;5079164;28;20448;-81
2021/03/01 01:05:03;;;;;;;12.77;11.40;;;0.10;99.90;;;;;;5079509;28;20539;-81
2021/03/01 01:07:29;;;;;;;13.30;11.40;;;0.10;99.90;;;;;;5079169;28;20447;-81
2021/03/01 01:09:55;;;;;;;13.50;10.73;;;0.10;99.90;;;;;;5083530;28;20468;-81
2021/03/01 01:12:22;;;;;;;12.67;11.37;;;0.10;99.90;;;;;;5083576;28;20444;-81
2021/03/01 01:14:48;;;;;;;12.37;11.07;;;0.10;99.90;;;;;;5089514;28;20461;-81
2021/03/01 01:17:15;;;;;;;12.63;11.17;;;0.00;99.90;;;;;;5103460;28;20431;-81
2021/03/01 01:19:42;;;;;;;13.10;11.10;;;-0.10;99.90;;;;;;5080248;28;20471;-81
2021/03/01 01:22:08;;;;;;;12.70;11.20;;;-0.10;99.90;;;;;;5104337;28;20439;-81
2021/03/01 01:24:35;;;;;;;15.93;12.00;;;-0.10;99.90;;;;;;5082018;28;20455;-80
2021/03/01 01:27:01;;;;;;;13.37;11.57;;;-0.20;99.90;;;;;;5080160;28;20452;-82
2021/03/01 01:29:27;;;;;;;13.60;12.20;;;-0.20;99.90;;;;;;5083351;28;20542;-82
2021/03/01 01:31:54;;;;;;;12.77;11.23;;;-0.30;99.90;;;;;;5083299;28;20440;-81
2021/03/01 01:34:20;;;;;;;13.17;11.90;;;-0.30;99.90;;;;;;5085776;28;20448;-81
2021/03/01 01:36:47;;;;;;;12.77;11.17;;;-0.30;99.90;;;;;;5099525;28;20428;-81
2021/03/01 01:39:13;;;;;;;13.47;11.97;;;-0.30;99.90;;;;;;5074515;28;20467;-81
2021/03/01 01:41:40;;;;;;;14.60;12.43;;;-0.30;99.90;;;;;;5079791;28;20532;-81
2021/03/01 01:44:06;;;;;;;12.40;10.97;;;-0.30;99.90;;;;;;5104188;28;20435;-82
2021/03/01 01:46:33;;;;;;;13.77;12.37;;;-0.30;99.90;;;;;;5079703;28;20808;-82
2021/03/01 01:48:59;;;;;;;13.70;11.77;;;-0.40;99.90;;;;;;5080027;28;20463;-82
2021/03/01 01:51:25;;;;;;;17.87;12.83;;;-0.30;99.90;;;;;;5101268;28;20444;-82
2021/03/01 01:53:53;;;;;;;15.87;11.40;;;-0.40;99.90;;;;;;5086266;28;20452;-82
2021/03/01 01:56:19;;;;;;;12.67;11.47;;;-0.50;99.90;;;;;;5084777;28;20511;-82
2021/03/01 01:58:46;;;;;;;15.70;12.50;;;-0.50;99.90;;;;;;5102851;28;20448;-82
2021/03/01 02:01:12;;;;;;;13.90;12.00;;;-0.50;99.90;;;;;;5082500;28;20474;-82
2021/03/01 02:03:53;;;;;;;16.33;11.77;;;-0.60;99.90;;;;;;5097426;28;20835;-82
2021/03/01 02:06:30;;;;;;;17.93;12.07;;;-0.60;99.90;;;;;;5083742;28;20447;-82
2021/03/01 02:09:09;;;;;;;13.47;11.73;;;-0.60;99.90;;;;;;5082232;28;21020;-82
2021/03/01 02:11:49;;;;;;;14.77;12.63;;;-0.60;99.90;;;;;;5073139;28;20451;-82
2021/03/01 02:14:22;;;;;;;13.30;11.90;;;-0.60;99.90;;;;;;5078015;28;20456;-82
2021/03/01 02:16:48;;;;;;;13.27;11.83;;;-0.60;99.90;;;;;;5079683;28;20505;-82
2021/03/01 02:19:15;;;;;;;17.50;13.03;;;-0.50;99.90;;;;;;5084034;28;20500;-82
2021/03/01 02:21:45;;;;;;;12.90;11.57;;;-0.60;99.90;;;;;;5099954;28;20525;-82
2021/03/01 02:24:15;;;;;;;15.07;12.43;;;-0.70;99.90;;;;;;5083056;28;21032;-82
2021/03/01 02:26:46;;;;;;;15.10;12.23;;;-0.70;99.90;;;;;;5081700;28;20452;-82
2021/03/01 02:29:18;;;;;;;14.43;12.47;;;-0.70;99.90;;;;;;5083635;28;20456;-82
2021/03/01 02:31:46;;;;;;;14.03;12.53;;;-0.80;99.90;;;;;;5083372;28;20509;-82
2021/03/01 02:34:15;;;;;;;13.33;11.93;;;-0.80;99.90;;;;;;5084729;28;20477;-82
2021/03/01 02:36:46;;;;;;;16.70;12.80;;;-0.80;99.90;;;;;;5080045;28;20458;-82
2021/03/01 02:39:16;;;;;;;14.63;11.70;;;-0.80;99.90;;;;;;5084439;28;20460;-82
2021/03/01 02:41:44;;;;;;;15.83;12.53;;;-0.80;99.90;;;;;;5087261;28;20470;-82
2021/03/01 02:44:10;;;;;;;16.23;12.53;;;-0.90;99.90;;;;;;5081140;28;20478;-82
2021/03/01 02:46:37;;;;;;;13.03;11.03;;;-0.90;99.90;;;;;;5085528;28;20447;-82
2021/03/01 02:49:06;;;;;;;14.57;12.97;;;-0.90;99.90;;;;;;5084993;28;20467;-82
2021/03/01 02:51:36;;;;;;;15.90;12.53;;;-0.90;99.90;;;;;;5103706;28;20439;-82
2021/03/01 02:54:04;;;;;;;16.10;13.20;;;-1.00;99.90;;;;;;5098532;28;20431;-82
2021/03/01 02:56:32;;;;;;;15.40;13.43;;;-1.00;99.90;;;;;;5082106;28;20505;-82
2021/03/01 02:58:59;;;;;;;18.23;13.20;;;-1.00;99.90;;;;;;5082124;28;20459;-82
2021/03/01 03:01:27;;;;;;;15.83;13.27;;;-0.90;99.90;;;;;;5082190;28;21018;-82
2021/03/01 03:03:54;;;;;;;16.57;13.17;;;-0.90;99.90;;;;;;5082190;28;20444;-81
2021/03/01 03:06:23;;;;;;;14.67;13.10;;;-0.90;99.90;;;;;;5085183;28;20504;-82
2021/03/01 03:08:52;;;;;;;14.70;12.10;;;-0.90;99.90;;;;;;5082906;28;20492;-82
2021/03/01 03:11:20;;;;;;;15.33;12.33;;;-1.00;99.90;;;;;;5096842;28;20499;-82
2021/03/01 03:13:49;;;;;;;14.40;12.10;;;-1.00;99.90;;;;;;5103719;28;20427;-81
2021/03/01 03:16:16;;;;;;;17.53;12.97;;;-1.10;99.90;;;;;;5080145;28;20452;-82
2021/03/01 03:18:44;;;;;;;20.10;13.80;;;-1.10;99.90;;;;;;5106459;28;20463;-82
2021/03/01 03:21:12;;;;;;;17.97;14.57;;;-1.10;99.90;;;;;;5101509;28;20467;-82
2021/03/01 03:23:39;;;;;;;17.50;14.20;;;-1.20;99.90;;;;;;5105227;28;20435;-82
2021/03/01 03:26:06;;;;;;;20.30;14.90;;;-1.20;99.90;;;;;;5084930;28;20447;-81
2021/03/01 03:28:33;;;;;;;15.90;13.33;;;-1.20;99.90;;;;;;5099853;28;20912;-82
2021/03/01 03:30:59;;;;;;;16.80;13.23;;;-1.20;99.90;;;;;;5085282;28;20454;-82
2021/03/01 03:33:26;;;;;;;18.83;14.37;;;-1.20;99.90;;;;;;5097543;28;20996;-83
2021/03/01 03:35:52;;;;;;;17.03;14.10;;;-1.10;99.90;;;;;;5097089;28;20448;-80
2021/03/01 03:38:22;;;;;;;15.87;13.20;;;-1.10;99.90;;;;;;5102463;28;20810;-80
2021/03/01 03:40:50;;;;;;;17.23;13.63;;;-1.20;99.90;;;;;;5086178;28;21019;-87
2021/03/01 03:43:17;;;;;;;14.57;12.77;;;-1.20;99.90;;;;;;5079423;28;20444;-76
2021/03/01 03:45:45;;;;;;;15.87;13.90;;;-1.20;99.90;;;;;;5101779;28;20442;-82
2021/03/01 03:48:13;;;;;;;18.70;14.73;;;-1.30;99.90;;;;;;5079167;28;20451;-78
2021/03/01 03:50:41;;;;;;;15.73;13.57;;;-1.20;99.90;;;;;;5070402;28;20464;-82
2021/03/01 03:53:10;;;;;;;15.93;12.70;;;-1.30;99.90;;;;;;5085547;28;20989;-81
2021/03/01 03:55:39;;;;;;;18.93;14.73;;;-1.30;99.90;;;;;;5085511;28;20451;-80
2021/03/01 03:58:11;;;;;;;15.73;13.03;;;-1.30;99.90;;;;;;5087656;28;20602;-81
2021/03/01 04:00:39;;;;;;;16.33;14.17;;;-1.40;99.90;;;;;;5082538;28;20463;-80
2021/03/01 04:03:10;;;;;;;17.63;13.53;;;-1.40;99.90;;;;;;5081457;28;20448;-81
2021/03/01 04:05:39;;;;;;;15.83;12.67;;;-1.40;99.90;;;;;;5082571;28;20485;-80
2021/03/01 04:08:08;;;;;;;18.40;13.93;;;-1.50;99.90;;;;;;5099495;28;20978;-81
2021/03/01 04:10:36;;;;;;;15.63;13.63;;;-1.50;99.90;;;;;;5085332;28;20873;-81
2021/03/01 04:13:09;;;;;;;15.93;13.63;;;-1.50;99.90;;;;;;5080647;28;20444;-80
2021/03/01 04:16:07;;;;;;;18.13;14.10;;;-1.50;99.90;;;;;;5073800;28;20451;-82
2021/03/01 04:18:37;;;;;;;15.33;12.87;;;-1.50;99.90;;;;;;5093950;28;20435;-80
2021/03/01 04:21:07;;;;;;;16.83;14.17;;;-1.60;99.90;;;;;;5100890;28;20652;-77
2021/03/01 04:23:36;;;;;;;16.60;13.43;;;-1.50;99.90;;;;;;5111169;28;20465;-81
2021/03/01 04:26:03;;;;;;;18.37;13.77;;;-1.60;99.90;;;;;;5101644;28;21007;-81
2021/03/01 04:28:30;;;;;;;20.53;13.67;;;-1.60;99.90;;;;;;5101971;28;20455;-81
2021/03/01 04:31:01;;;;;;;16.37;14.60;;;-1.60;99.90;;;;;;5086103;28;20440;-81
2021/03/01 04:33:28;;;;;;;14.50;13.00;;;-1.60;99.90;;;;;;5081086;28;20439;-81
2021/03/01 04:35:56;;;;;;;14.60;13.07;;;-1.60;99.90;;;;;;5087705;28;20501;-81
2021/03/01 04:38:23;;;;;;;15.13;13.43;;;-1.60;99.90;;;;;;5101955;28;20462;-81
2021/03/01 04:40:50;;;;;;;15.83;13.33;;;-1.60;99.90;;;;;;5102462;28;20864;-81
2021/03/01 04:43:20;;;;;;;15.33;13.30;;;-1.60;99.90;;;;;;5085913;28;20448;-81
2021/03/01 04:45:47;;;;;;;15.70;13.57;;;-1.60;99.90;;;;;;5103133;28;20440;-81
2021/03/01 04:48:15;;;;;;;14.30;12.50;;;-1.60;99.90;;;;;;5084316;28;20943;-81
2021/03/01 04:50:46;;;;;;;16.57;13.60;;;-1.60;99.90;;;;;;5083201;28;20464;-81
2021/03/01 04:53:14;;;;;;;14.23;12.80;;;-1.70;99.90;;;;;;5088248;28;20435;-82
2021/03/01 04:55:41;;;;;;;18.03;13.10;;;-1.70;99.90;;;;;;5083160;28;20443;-81
2021/03/01 04:58:08;;;;;;;15.27;13.67;;;-1.60;99.90;;;;;;5079730;28;20471;-81
2021/03/01 05:00:35;;;;;;;15.87;14.17;;;-1.60;99.90;;;;;;5087146;28;20825;-82
2021/03/01 05:03:03;;;;;;;14.47;12.80;;;-1.60;99.90;;;;;;5082262;28;20502;-81
2021/03/01 05:05:30;;;;;;;16.57;13.00;;;-1.60;99.90;;;;;;5089910;28;20457;-82
2021/03/01 05:07:58;;;;;;;15.73;13.60;;;-1.60;99.90;;;;;;5083807;28;20455;-81
2021/03/01 05:10:26;;;;;;;18.23;14.90;;;-1.60;99.90;;;;;;5085493;28;20464;-81
2021/03/01 05:12:52;;;;;;;16.87;14.13;;;-1.60;99.90;;;;;;5082691;28;20442;-81
2021/03/01 05:15:19;;;;;;;17.33;14.90;;;-1.50;99.90;;;;;;5084599;28;20462;-82
2021/03/01 05:17:46;;;;;;;14.80;13.30;;;-1.60;99.90;;;;;;5084014;28;20482;-82
2021/03/01 05:20:13;;;;;;;16.30;13.13;;;-1.50;99.90;;;;;;5097322;28;20575;-82
2021/03/01 05:22:39;;;;;;;15.93;14.23;;;-1.50;99.90;;;;;;5086861;28;20447;-82
2021/03/01 05:25:07;;;;;;;19.97;14.93;;;-1.60;99.90;;;;;;5099047;28;20454;-82
2021/03/01 05:27:35;;;;;;;17.83;14.47;;;-1.60;99.90;;;;;;5083515;28;20447;-80
2021/03/01 05:30:04;;;;;;;15.80;14.07;;;-1.60;99.90;;;;;;5101543;28;20994;-82
2021/03/01 05:32:30;;;;;;;16.67;13.70;;;-1.70;99.90;;;;;;5075457;28;20498;-82
2021/03/01 05:34:57;;;;;;;19.27;14.37;;;-1.70;99.90;;;;;;5102760;28;20449;-82
2021/03/01 05:37:24;;;;;;;16.53;14.67;;;-1.70;99.90;;;;;;5086866;28;20517;-82
2021/03/01 05:39:50;;;;;;;20.67;15.20;;;-1.70;99.90;;;;;;5085157;28;21036;-81
2021/03/01 05:42:20;;;;;;;19.20;14.27;;;-1.70;99.90;;;;;;5081088;28;20452;-82
2021/03/01 05:44:48;;;;;;;16.83;14.70;;;-1.80;99.90;;;;;;5081698;28;21036;-82
2021/03/01 05:47:14;;;;;;;15.60;13.63;;;-1.90;99.90;;;;;;5084358;28;20827;-81
2021/03/01 05:49:42;;;;;;;17.63;14.40;;;-1.90;99.90;;;;;;5084691;28;20454;-82
2021/03/01 05:52:11;;;;;;;16.90;14.30;;;-1.90;99.90;;;;;;5084457;28;20440;-81
2021/03/01 05:54:39;;;;;;;15.63;14.03;;;-1.90;99.90;;;;;;5083925;28;20448;-82
2021/03/01 05:57:06;;;;;;;16.40;13.37;;;-2.00;99.90;;;;;;5083606;28;20463;-82
2021/03/01 05:59:33;;;;;;;17.93;14.30;;;-2.00;99.90;;;;;;5074371;28;20488;-82
2021/03/01 06:02:00;;;;;;;16.23;13.60;;;-2.00;99.90;;;;;;5078398;28;20472;-82
2021/03/01 06:04:27;;;;;;;14.53;12.73;;;-2.00;99.90;;;;;;5085487;28;20962;-81
2021/03/01 06:06:53;;;;;;;15.60;14.03;;;-2.00;99.90;;;;;;5081531;28;20454;-82
2021/03/01 06:09:20;;;;;;;20.70;14.63;;;-2.00;99.90;;;;;;5084347;28;20486;-82
2021/03/01 06:11:47;;;;;;;16.03;14.37;;;-2.00;99.90;;;;;;5082405;28;20522;-82
2021/03/01 06:14:14;;;;;;;16.47;13.87;;;-2.00;99.90;;;;;;5084691;28;20501;-82
2021/03/01 06:17:12;;;;;;;18.90;15.57;;;-1.90;99.90;;;;;;5086117;28;20498;-82
2021/03/01 06:19:50;;;;;;;16.37;14.67;;;-1.90;99.90;;;;;;5099482;28;20874;-82
2021/03/01 06:22:18;;;;;;;15.23;13.50;;;-1.90;99.90;;;;;;5083648;28;20677;-81
2021/03/01 06:25:01;;;;;;;19.43;15.20;;;-1.90;99.90;;;;;;5079712;28;20994;-81
2021/03/01 06:27:27;;;;;;;16.77;14.60;;;-1.90;99.90;;;;;;5082635;28;20447;-82
2021/03/01 06:30:09;;;;;;;15.93;14.30;;;-1.80;99.90;;;;;;5083378;28;20490;-82
2021/03/01 06:32:36;;;;;;;15.90;14.23;;;-1.70;99.90;;;;;;5072388;28;20676;-82
2021/03/01 06:35:04;;;;;;;16.57;14.83;;;-1.60;99.90;;;;;;5095566;28;20435;-81
2021/03/01 06:37:30;;;;;;;16.90;14.67;;;-1.60;99.90;;;;;;5082071;28;20449;-82
2021/03/01 06:39:57;;;;;;;17.73;14.23;;;-1.60;99.90;;;;;;5100887;28;20465;-82
2021/03/01 06:42:29;;;;;;;18.53;15.03;;;-1.60;99.90;;;;;;5084657;28;20454;-82
2021/03/01 06:45:20;;;;;;;16.60;14.90;;;-1.50;99.90;;;;;;5088613;28;20488;-82
2021/03/01 06:47:49;;;;;;;17.13;14.57;;;-1.30;99.90;;;;;;5066506;28;20482;-82
2021/03/01 06:50:31;;;;;;;16.60;14.70;;;-1.00;99.90;;;;;;5104050;28;20459;-82
2021/03/01 06:53:02;;;;;;;15.33;13.80;;;-0.70;99.90;;;;;;5104910;28;20439;-82
2021/03/01 06:55:29;;;;;;;16.03;14.43;;;-0.30;99.90;;;;;;5079793;28;20451;-82
2021/03/01 06:57:56;;;;;;;17.37;14.80;;;0.10;99.90;;;;;;5084682;28;20493;-82
2021/03/01 07:00:24;;;;;;;18.30;15.03;;;0.50;99.90;;;;;;5079979;28;20840;-83
2021/03/01 07:02:53;;;;;;;16.20;14.50;;;0.70;99.90;;;;;;5080260;28;20448;-83
2021/03/01 07:05:19;;;;;;;16.40;14.70;;;1.10;99.90;;;;;;5101971;28;20938;-82
2021/03/01 07:07:46;;;;;;;16.33;13.80;;;1.40;99.90;;;;;;5101043;28;20939;-82
2021/03/01 07:10:13;;;;;;;14.73;13.03;;;1.70;99.90;;;;;;5083261;28;20496;-83
2021/03/01 07:12:41;;;;;;;18.13;13.83;;;2.10;99.90;;;;;;5075585;28;20539;-83
2021/03/01 07:15:10;;;;;;;16.37;14.23;;;2.40;99.90;;;;;;5105249;28;20435;-82
2021/03/01 07:17:41;;;;;;;15.33;13.77;;;2.60;99.90;;;;;;5103992;28;20435;-83
2021/03/01 07:20:11;;;;;;;16.47;14.87;;;2.90;99.90;;;;;;5090462;28;20554;-83
2021/03/01 07:22:42;;;;;;;17.03;15.07;;;3.00;99.90;;;;;;5084993;28;20438;-82
2021/03/01 07:25:11;;;;;;;18.53;16.43;;;3.20;99.90;;;;;;5099261;28;20851;-82
2021/03/01 07:27:39;;;;;;;17.83;15.80;;;3.30;99.90;;;;;;5090800;28;20453;-83
2021/03/01 07:30:07;;;;;;;16.27;14.47;;;3.60;99.90;;;;;;5083616;28;20531;-83
2021/03/01 07:32:37;;;;;;;17.63;15.07;;;3.40;99.90;;;;;;5087050;28;20452;-83
2021/03/01 07:35:04;;;;;;;13.80;12.40;;;3.50;99.90;;;;;;5086461;28;20434;-82
2021/03/01 07:37:31;;;;;;;15.60;13.87;;;3.40;99.90;;;;;;5083478;28;20438;-82
2021/03/01 07:39:58;;;;;;;17.70;14.73;;;3.40;99.90;;;;;;5086538;28;20887;-81
2021/03/01 07:42:27;;;;;;;16.47;14.77;;;3.40;99.90;;;;;;5087507;28;20451;-82
2021/03/01 07:44:54;;;;;;;17.07;13.97;;;3.50;99.90;;;;;;5085506;28;20447;-82
2021/03/01 07:47:27;;;;;;;16.97;14.60;;;3.90;99.90;;;;;;5081853;28;20492;-83
2021/03/01 07:49:53;;;;;;;15.83;13.67;;;4.20;99.90;;;;;;5091742;28;20465;-83
2021/03/01 07:52:36;;;;;;;14.93;13.47;;;4.60;99.90;;;;;;5104224;28;20443;-82
2021/03/01 07:55:05;;;;;;;16.10;14.47;;;5.00;99.90;;;;;;5082535;28;20444;-82
2021/03/01 07:57:33;;;;;;;12.23;10.37;;;5.30;99.90;;;;;;5077154;28;20311;-83
2021/03/01 08:00:20;;;;;;;13.20;9.07;;;5.60;99.90;;;;;;5085210;28;20221;-83
2021/03/01 08:02:46;;;;;;;13.20;10.93;;;5.90;99.90;;;;;;5079003;28;20205;-83
2021/03/01 08:05:21;;;;;;;14.57;12.00;;;6.30;99.90;;;;;;5086537;28;20224;-83
2021/03/01 08:07:49;;;;;;;16.20;13.53;;;6.40;99.90;;;;;;5097796;28;20657;-84
2021/03/01 08:10:19;;;;;;;17.00;15.40;;;6.70;99.90;;;;;;5102750;28;20209;-83
2021/03/01 08:13:00;;;;;;;15.07;13.63;;;7.10;99.90;;;;;;5084695;28;20196;-82
2021/03/01 08:15:32;;;;;;;15.30;13.63;;;7.40;99.90;;;;;;5087049;28;20195;-83
2021/03/01 08:17:59;;;;;;;13.07;11.73;;;7.20;99.90;;;;;;5085225;28;20203;-83
2021/03/01 08:20:37;;;;;;;15.77;14.10;;;7.50;99.90;;;;;;5080155;28;20224;-83
2021/03/01 08:23:21;;;;;;;16.10;14.50;;;7.90;99.90;;;;;;5088404;28;20200;-83
2021/03/01 08:25:57;;;;;;;15.57;13.90;;;8.10;99.90;;;;;;5101929;28;20615;-83
2021/03/01 08:28:50;;;;;;;15.13;13.27;;;8.40;99.90;;;;;;5080609;28;20288;-82
2021/03/01 08:31:28;;;;;;;15.20;13.70;;;8.60;99.90;;;;;;5097806;28;20203;-83
2021/03/01 08:34:15;;;;;;;15.53;13.87;;;8.90;99.90;;;;;;5105913;28;20280;-83
2021/03/01 08:36:43;;;;;;;14.97;13.47;;;8.90;99.90;;;;;;5094984;28;20196;-83
2021/03/01 08:39:11;;;;;;;15.80;13.47;;;8.90;99.90;;;;;;5080826;28;20316;-83
2021/03/01 08:41:42;;;;;;;16.47;14.50;;;8.60;99.90;;;;;;5106087;28;20209;-83
2021/03/01 08:44:20;;;;;;;15.90;14.33;;;8.40;99.90;;;;;;5082399;28;20201;-83
2021/03/01 08:46:48;;;;;;;16.20;14.47;;;8.60;99.90;;;;;;5078724;28;20299;-83
2021/03/01 08:49:23;;;;;;;15.73;13.37;;;8.50;99.90;;;;;;5103665;28;20213;-83
2021/03/01 08:51:50;;;;;;;15.47;13.83;;;8.80;99.90;;;;;;5102703;28;20268;-83
2021/03/01 08:54:31;;;;;;;17.10;13.93;;;9.00;99.90;;;;;;5086124;28;20217;-83
2021/03/01 08:57:04;;;;;;;16.53;13.47;;;9.00;99.90;;;;;;5101994;28;20192;-82
2021/03/01 08:59:31;;;;;;;14.50;13.00;;;8.90;99.90;;;;;;5097914;28;20236;-84
2021/03/01 09:01:57;;;;;;;15.73;14.13;;;9.10;99.90;;;;;;5104226;28;20217;-83
2021/03/01 09:04:24;;;;;;;17.10;13.90;;;8.80;99.90;;;;;;5080116;28;20247;-84
2021/03/01 09:06:50;;;;;;;17.13;14.60;;;9.00;99.90;;;;;;5081208;28;20661;-83
2021/03/01 09:09:16;;;;;;;16.20;14.20;;;9.10;99.90;;;;;;5101803;28;20213;-83
2021/03/01 09:11:44;;;;;;;14.73;13.20;;;9.10;99.90;;;;;;5083570;28;20662;-83
2021/03/01 09:14:10;;;;;;;14.87;13.37;;;9.00;99.90;;;;;;5104104;28;20669;-83
2021/03/01 09:16:40;;;;;;;17.30;15.50;;;9.20;99.90;;;;;;5098254;28;20314;-83
2021/03/01 09:19:07;;;;;;;15.57;14.07;;;9.00;99.90;;;;;;5086333;28;20514;-83
2021/03/01 09:21:38;;;;;;;16.40;14.80;;;9.10;99.90;;;;;;5083385;28;20217;-82
2021/03/01 09:24:05;;;;;;;15.47;13.93;;;9.30;99.90;;;;;;5087101;28;20197;-83
2021/03/01 09:26:33;;;;;;;14.93;13.43;;;9.20;99.90;;;;;;5081065;28;20200;-83
2021/03/01 09:29:05;;;;;;;16.43;14.40;;;9.30;99.90;;;;;;5079557;28;20238;-83
2021/03/01 09:31:36;;;;;;;15.70;14.07;;;9.40;99.90;;;;;;5084313;28;20196;-83
2021/03/01 09:34:02;;;;;;;14.13;12.83;;;9.70;99.90;;;;;;5082343;28;20222;-84
2021/03/01 09:36:30;;;;;;;15.00;13.47;;;9.90;99.90;;;;;;5092806;28;20186;-83
2021/03/01 09:38:57;;;;;;;15.30;13.80;;;10.10;99.90;;;;;;5083115;28;20221;-83
2021/03/01 09:41:24;;;;;;;14.00;12.60;;;10.00;99.90;;;;;;5084556;28;20221;-83
2021/03/01 09:43:51;;;;;;;15.60;13.80;;;10.10;99.90;;;;;;5083178;28;20206;-83
2021/03/01 09:46:19;;;;;;;15.03;13.53;;;10.20;99.90;;;;;;5086855;28;20696;-83
2021/03/01 09:48:49;;;;;;;15.23;13.63;;;9.90;99.90;;;;;;5101209;28;20213;-83
2021/03/01 09:51:17;;;;;;;14.43;12.93;;;9.90;99.90;;;;;;5079702;28;20202;-83
2021/03/01 09:53:45;;;;;;;13.77;12.37;;;10.10;99.90;;;;;;5081371;28;20201;-83
2021/03/01 09:56:11;;;;;;;15.40;13.90;;;10.20;99.90;;;;;;5083628;28;20201;-83
2021/03/01 09:58:41;;;;;;;14.57;13.03;;;9.90;99.90;;;;;;5102972;28;20695;-83
2021/03/01 10:01:10;;;;;;;15.23;13.27;;;9.70;99.90;;;;;;5083371;28;20266;-83
2021/03/01 10:03:39;;;;;;;14.43;13.03;;;9.30;99.90;;;;;;5097832;28;20189;-83
2021/03/01 10:06:06;;;;;;;14.53;13.10;;;9.30;99.90;;;;;;5085674;28;20209;-83
2021/03/01 10:08:34;;;;;;;13.97;12.57;;;9.40;99.90;;;;;;5082542;28;20202;-83
2021/03/01 10:11:00;;;;;;;14.70;13.30;;;9.30;99.90;;;;;;5085080;28;20242;-83
2021/03/01 10:13:32;;;;;;;14.17;12.77;;;9.30;99.90;;;;;;5097625;28;20198;-83
2021/03/01 10:15:59;;;;;;;14.03;12.57;;;9.30;99.90;;;;;;5079819;28;20197;-83
2021/03/01 10:18:30;;;;;;;15.07;13.57;;;9.40;99.90;;;;;;5085301;28;20208;-83
2021/03/01 10:21:03;;;;;;;13.50;11.83;;;9.20;99.90;;;;;;5082608;28;20210;-83
2021/03/01 10:23:37;;;;;;;12.97;11.67;;;9.20;99.90;;;;;;5097796;28;20205;-83
2021/03/01 10:26:14;;;;;;;13.60;12.23;;;9.20;99.90;;;;;;5083657;28;20205;-83
2021/03/01 10:28:49;;;;;;;13.37;12.00;;;9.00;99.90;;;;;;5073011;28;20195;-83
2021/03/01 10:31:17;;;;;;;13.90;12.50;;;8.90;99.90;;;;;;5084865;28;20192;-84
2021/03/01 10:33:58;;;;;;;16.13;12.80;;;8.70;99.90;;;;;;5083960;28;20231;-83
2021/03/01 10:36:27;;;;;;;14.70;13.20;;;8.70;99.90;;;;;;5079217;28;20207;-83
2021/03/01 10:38:57;;;;;;;14.47;12.97;;;8.70;99.90;;;;;;5080399;28;20221;-84
2021/03/01 10:41:26;;;;;;;14.27;12.87;;;8.70;99.90;;;;;;5103954;28;20670;-83
2021/03/01 10:43:55;;;;;;;14.13;12.40;;;8.80;99.90;;;;;;5081924;28;20201;-83
2021/03/01 10:46:32;;;;;;;13.77;12.33;;;8.90;99.90;;;;;;5102357;28;20204;-83
2021/03/01 10:48:59;;;;;;;14.53;12.53;;;8.90;99.90;;;;;;5105380;28;20274;-84
2021/03/01 10:51:26;;;;;;;14.33;12.83;;;8.90;99.90;;;;;;5084425;28;20203;-83
2021/03/01 10:53:52;;;;;;;14.57;13.00;;;9.00;99.90;;;;;;5091184;28;20217;-83
2021/03/01 10:56:19;;;;;;;13.73;12.23;;;8.90;99.90;;;;;;5106584;28;20194;-83
2021/03/01 10:58:45;;;;;;;13.63;12.20;;;9.00;99.90;;;;;;5105501;28;20750;-83
2021/03/01 11:01:12;;;;;;;15.87;12.97;;;9.00;99.90;;;;;;5087324;28;20226;-83
2021/03/01 11:03:38;;;;;;;12.93;11.60;;;9.10;99.90;;;;;;5086091;28;20240;-83
2021/03/01 11:06:05;;;;;;;14.00;12.53;;;9.20;99.90;;;;;;5090012;28;20196;-84
2021/03/01 11:08:32;;;;;;;13.67;12.27;;;9.30;99.90;;;;;;5083970;28;20200;-83
2021/03/01 11:10:58;;;;;;;13.53;12.13;;;9.30;99.90;;;;;;5084994;28;20193;-82
2021/03/01 11:13:25;;;;;;;13.67;12.37;;;9.30;99.90;;;;;;5104626;28;20198;-81
2021/03/01 11:15:51;;;;;;;13.17;11.90;;;9.50;99.90;;;;;;5104293;28;20200;-82
2021/03/01 11:18:17;;;;;;;12.00;10.80;;;9.60;99.90;;;;;;5105702;28;20197;-81
2021/03/01 11:20:43;;;;;;;13.93;12.53;;;9.70;99.90;;;;;;5085556;28;20586;-82
2021/03/01 11:23:10;;;;;;;12.87;11.57;;;9.70;99.90;;;;;;5087044;28;20193;-83
2021/03/01 11:25:37;;;;;;;12.43;11.27;;;9.80;99.90;;;;;;5100307;28;20197;-83
2021/03/01 11:28:05;;;;;;;12.57;11.37;;;9.90;99.90;;;;;;5107430;28;20201;-83
2021/03/01 11:30:32;;;;;;;12.60;11.40;;;10.00;99.90;;;;;;5085309;28;20217;-83
2021/03/01 11:32:58;;;;;;;13.83;12.40;;;10.10;99.90;;;;;;5083328;28;20289;-82
2021/03/01 11:35:24;;;;;;;12.90;11.57;;;10.20;99.90;;;;;;5086562;28;20201;-83
2021/03/01 11:37:51;;;;;;;13.57;12.13;;;10.30;99.90;;;;;;5085169;28;20197;-83
2021/03/01 11:40:17;;;;;;;13.73;12.33;;;10.40;99.90;;;;;;5087631;28;20248;-83
2021/03/01 11:42:45;;;;;;;12.70;11.40;;;10.50;99.90;;;;;;5086242;28;20709;-83
2021/03/01 11:45:12;;;;;;;12.70;11.50;;;10.60;99.90;;;;;;5087816;28;20202;-83
2021/03/01 11:47:38;;;;;;;13.20;12.00;;;10.70;99.90;;;;;;5085461;28;20193;-81
2021/03/01 11:50:06;;;;;;;15.47;13.13;;;10.80;99.90;;;;;;5093991;28;20727;-82
2021/03/01 11:52:32;;;;;;;13.13;11.80;;;10.80;99.90;;;;;;5115873;28;20196;-83
2021/03/01 11:54:59;;;;;;;12.37;11.27;;;11.00;99.90;;;;;;5096943;28;20193;-83
2021/03/01 11:57:26;;;;;;;11.87;10.87;;;11.00;99.90;;;;;;5097438;28;20201;-83
2021/03/01 11:59:53;;;;;;;13.83;12.30;;;11.20;99.90;;;;;;5096978;28;20638;-83
2021/03/01 12:02:20;;;;;;;13.60;12.13;;;11.30;99.90;;;;;;5097111;28;20310;-83
2021/03/01 12:04:47;;;;;;;12.30;11.10;;;11.30;99.90;;;;;;5097425;28;20246;-84
2021/03/01 12:07:13;;;;;;;12.53;11.43;;;11.30;99.90;;;;;;5097246;28;20197;-83
2021/03/01 12:09:39;;;;;;;12.60;11.50;;;11.40;99.90;;;;;;5096939;28;20209;-83
2021/03/01 12:12:06;;;;;;;12.27;11.20;;;11.40;99.90;;;;;;5105344;28;20579;-84
2021/03/01 12:14:32;;;;;;;12.13;10.97;;;11.50;99.90;;;;;;5089634;28;20201;-84
2021/03/01 12:17:00;;;;;;;11.30;10.20;;;11.70;99.90;;;;;;5084176;28;20666;-83
2021/03/01 12:19:26;;;;;;;11.40;10.50;;;11.80;99.90;;;;;;5084664;28;20229;-83
2021/03/01 12:21:53;;;;;;;10.97;10.07;;;12.00;99.90;;;;;;5084870;28;20217;-82
2021/03/01 12:24:19;;;;;;;10.73;9.87;;;12.20;99.90;;;;;;5086838;28;20194;-83
2021/03/01 12:26:45;;;;;;;10.23;9.43;;;12.40;97.60;;;;;;5096581;28;20337;-84
2021/03/01 12:29:12;;;;;;;9.70;9.00;;;12.40;98.10;;;;;;5114913;28;20279;-83
2021/03/01 12:31:38;;;;;;;9.60;8.70;;;12.50;96.50;;;;;;5096570;28;20688;-83
2021/03/01 12:34:05;;;;;;;9.60;8.87;;;12.60;96.00;;;;;;5114603;28;20191;-83
2021/03/01 12:36:32;;;;;;;10.17;9.23;;;12.70;96.30;;;;;;5096529;28;20283;-84
2021/03/01 12:38:58;;;;;;;9.97;9.17;;;12.80;96.20;;;;;;5096269;28;20220;-83